Terminal Aerodrome Forecast
Issued by NWS Twin Cities, MN

Home | Current Version | Previous Version | Text Only | Print | Product List | Glossary Off
Versions: 1 2 3 4 5 6 7 8 9 10 11 12 13 14 15 16 17

000
FTUS43 KMPX 100150 AAA
TAFSTC
TAF AMD
KSTC 100150Z 1002/1024 29008KT P6SM OVC023
     FM100900 31006KT P6SM SCT025 BKN120
     FM101500 VRB03KT P6SM SCT025 OVC080=

USA.gov is the U.S. government's official web portal to all federal, state and local government web resources and services.